Time;durP1;ratioP1;P1;durP2;ratioP2;P2;SDS_P1;SDS_P2;PMS_P1;PMS_P2;Temp;Humidity;BMP_temperature;BMP_pressure;BME280_temperature;BME280_humidity;BME280_pressure;Samples;Min_cycle;Max_cycle;Signal;HPM_P1;HPM_P2
2022/04/26 03:38:03;;;;;;;22.63;12.70;;;9.60;83.40;;;;;;5037036;28;20394;-72
2022/04/26 03:40:28;;;;;;;24.23;13.02;;;9.60;84.30;;;;;;5036046;28;20509;-72
2022/04/26 03:42:54;;;;;;;24.08;12.43;;;9.50;83.60;;;;;;5039185;28;20494;-72
2022/04/26 03:45:19;;;;;;;24.75;13.02;;;9.50;83.60;;;;;;5010874;28;20033;-72
2022/04/26 03:47:45;;;;;;;23.95;13.68;;;9.60;83.80;;;;;;5036595;28;20048;-73
2022/04/26 03:50:11;;;;;;;21.75;13.63;;;9.50;83.80;;;;;;5057711;28;20039;-74
2022/04/26 03:52:39;;;;;;;25.13;14.02;;;9.50;83.90;;;;;;5014046;28;20064;-73
2022/04/26 03:55:05;;;;;;;22.70;13.07;;;9.50;83.90;;;;;;5022955;28;20571;-72
2022/04/26 03:57:30;;;;;;;24.30;13.40;;;9.50;84.00;;;;;;5041327;28;20670;-74
2022/04/26 03:59:56;;;;;;;25.23;14.52;;;9.50;84.00;;;;;;5028193;28;20035;-72
2022/04/26 04:02:22;;;;;;;23.63;12.20;;;9.60;84.20;;;;;;5012829;28;20114;-72
2022/04/26 04:04:47;;;;;;;25.67;14.15;;;9.50;84.10;;;;;;5008548;28;20079;-73
2022/04/26 04:07:13;;;;;;;25.25;14.18;;;9.50;84.10;;;;;;5036231;28;20127;-72
2022/04/26 04:09:38;;;;;;;30.60;15.13;;;9.60;84.30;;;;;;5013075;28;20044;-72
2022/04/26 04:12:04;;;;;;;28.30;15.52;;;9.60;84.30;;;;;;5044531;28;20057;-72
2022/04/26 04:14:30;;;;;;;24.85;13.50;;;9.60;84.30;;;;;;5042953;28;20029;-73
2022/04/26 04:16:57;;;;;;;22.20;13.35;;;9.50;84.30;;;;;;5033540;28;20045;-73
2022/04/26 04:19:24;;;;;;;23.67;12.90;;;9.60;84.30;;;;;;5025816;28;20117;-72
2022/04/26 04:21:50;;;;;;;22.42;12.63;;;9.50;84.20;;;;;;5028441;28;20040;-72
2022/04/26 04:24:16;;;;;;;24.40;14.02;;;9.60;84.30;;;;;;5023451;28;20037;-72
2022/04/26 04:26:42;;;;;;;25.80;14.07;;;9.60;84.20;;;;;;5034484;28;20116;-73
2022/04/26 04:29:08;;;;;;;21.50;12.50;;;9.60;84.20;;;;;;5060729;28;20047;-73
2022/04/26 04:31:33;;;;;;;26.55;14.35;;;9.60;84.20;;;;;;5048826;28;20155;-72
2022/04/26 04:34:01;;;;;;;30.50;15.38;;;9.60;84.10;;;;;;5031023;28;20675;-72
2022/04/26 04:36:27;;;;;;;24.40;14.32;;;9.60;84.10;;;;;;5058002;28;20071;-72
2022/04/26 04:38:52;;;;;;;29.88;16.05;;;9.60;84.00;;;;;;5040220;28;20505;-73
2022/04/26 04:41:18;;;;;;;27.92;15.27;;;9.60;84.00;;;;;;5006369;28;20037;-72
2022/04/26 04:43:44;;;;;;;28.02;16.48;;;9.60;84.10;;;;;;5041031;28;20482;-74
2022/04/26 04:46:10;;;;;;;27.90;15.85;;;9.60;84.20;;;;;;5010657;28;20094;-74
2022/04/26 04:48:37;;;;;;;27.40;14.80;;;9.60;84.20;;;;;;5038785;28;20037;-74
2022/04/26 04:51:02;;;;;;;25.65;13.38;;;9.60;84.40;;;;;;5042686;28;20076;-73
2022/04/26 04:53:28;;;;;;;30.23;15.82;;;9.60;84.30;;;;;;5027277;28;20071;-73
2022/04/26 04:55:53;;;;;;;27.17;14.50;;;9.60;84.20;;;;;;5014056;28;20044;-73
2022/04/26 04:58:19;;;;;;;30.10;16.52;;;9.60;84.30;;;;;;5009081;28;20036;-73
2022/04/26 05:00:44;;;;;;;30.23;16.42;;;9.60;84.30;;;;;;5018139;28;20043;-72
2022/04/26 05:03:10;;;;;;;26.67;15.00;;;9.60;84.30;;;;;;5041554;28;20052;-75
2022/04/26 05:05:35;;;;;;;28.70;16.20;;;9.60;84.30;;;;;;5042686;28;20040;-73
2022/04/26 05:08:01;;;;;;;29.73;17.38;;;9.60;84.40;;;;;;5007481;28;20057;-73
2022/04/26 05:10:27;;;;;;;27.48;16.20;;;9.60;84.40;;;;;;5048385;28;20561;-73
2022/04/26 05:12:52;;;;;;;29.50;15.25;;;9.50;84.40;;;;;;5060333;28;20090;-73
2022/04/26 05:15:18;;;;;;;30.92;17.35;;;9.50;84.50;;;;;;5029698;28;20032;-73
2022/04/26 05:17:43;;;;;;;28.33;15.93;;;9.50;84.60;;;;;;5026830;28;20029;-73
2022/04/26 05:20:09;;;;;;;29.02;15.90;;;9.50;84.60;;;;;;5042946;28;20040;-73
2022/04/26 05:24:53;;;;;;;32.17;15.10;;;9.50;84.70;;;;;;5016068;28;20733;-74
2022/04/26 05:25:21;;;;;;;31.17;16.33;;;9.50;84.70;;;;;;5040614;28;20036;-73
2022/04/26 05:27:46;;;;;;;25.25;15.05;;;9.50;84.80;;;;;;5060693;28;20036;-72
2022/04/26 05:30:12;;;;;;;26.80;15.10;;;9.50;84.80;;;;;;5015349;28;20041;-73
2022/04/26 05:32:38;;;;;;;23.27;13.77;;;9.50;84.90;;;;;;5008938;28;20565;-73
2022/04/26 05:35:03;;;;;;;26.90;14.57;;;9.40;85.00;;;;;;5032983;28;20049;-72
2022/04/26 05:37:31;;;;;;;24.63;13.63;;;9.40;85.10;;;;;;5043102;28;20509;-73
2022/04/26 05:39:56;;;;;;;29.38;16.50;;;9.40;85.20;;;;;;5014738;28;20041;-73
2022/04/26 05:42:22;;;;;;;22.35;13.02;;;9.40;85.30;;;;;;5006553;28;20063;-73
2022/04/26 05:44:47;;;;;;;25.67;14.75;;;9.40;85.30;;;;;;5020832;28;20098;-73
2022/04/26 05:47:13;;;;;;;24.08;13.75;;;9.50;85.20;;;;;;5031607;28;20115;-72
2022/04/26 05:49:39;;;;;;;23.50;13.52;;;9.50;85.20;;;;;;5010124;28;20408;-72
2022/04/26 05:52:04;;;;;;;23.73;13.27;;;9.50;85.30;;;;;;5038746;28;20048;-74
2022/04/26 05:54:30;;;;;;;25.10;14.70;;;9.50;85.20;;;;;;5035534;28;20109;-73
2022/04/26 05:56:56;;;;;;;23.35;13.98;;;9.50;85.30;;;;;;5040770;28;20055;-75
2022/04/26 05:59:22;;;;;;;25.55;14.48;;;9.60;85.40;;;;;;5027775;28;20625;-74
2022/04/26 06:01:48;;;;;;;25.77;14.52;;;9.60;85.40;;;;;;5033881;28;20540;-73
2022/04/26 06:04:13;;;;;;;23.23;13.20;;;9.60;85.40;;;;;;5047346;28;20075;-73
2022/04/26 06:06:39;;;;;;;25.30;14.05;;;9.60;85.40;;;;;;5015999;28;20433;-73
2022/04/26 06:09:04;;;;;;;24.05;12.70;;;9.60;85.40;;;;;;5038143;28;20080;-74
2022/04/26 06:11:30;;;;;;;21.92;14.02;;;9.60;85.40;;;;;;5008313;28;20032;-72
2022/04/26 06:13:56;;;;;;;25.08;13.70;;;9.50;85.30;;;;;;5058279;28;20029;-73
2022/04/26 06:16:21;;;;;;;25.77;14.30;;;9.50;85.40;;;;;;5030575;28;20033;-74
2022/04/26 06:18:47;;;;;;;47.28;21.55;;;9.50;85.50;;;;;;5049494;28;20608;-72
2022/04/26 06:21:12;;;;;;;26.05;14.18;;;9.50;85.40;;;;;;5044215;28;20389;-72
2022/04/26 06:23:39;;;;;;;25.70;13.95;;;9.50;85.40;;;;;;5009552;28;20025;-73
2022/04/26 06:26:05;;;;;;;25.30;14.00;;;9.50;85.50;;;;;;5027137;28;20029;-73
2022/04/26 06:28:30;;;;;;;37.35;18.10;;;9.50;85.60;;;;;;5043039;28;20101;-72
2022/04/26 06:30:56;;;;;;;31.70;14.98;;;9.60;85.60;;;;;;5062368;28;20033;-74
2022/04/26 06:33:21;;;;;;;24.08;12.48;;;9.60;85.60;;;;;;5042286;28;20439;-74
2022/04/26 06:35:47;;;;;;;26.17;14.00;;;9.60;85.60;;;;;;5009750;28;20044;-73
2022/04/26 06:38:12;;;;;;;24.65;13.40;;;9.60;85.60;;;;;;5019572;28;20079;-73
2022/04/26 06:40:38;;;;;;;23.60;14.23;;;9.60;85.60;;;;;;5026567;28;20043;-72
2022/04/26 06:43:04;;;;;;;25.48;14.25;;;9.60;85.60;;;;;;5017399;28;20037;-72
2022/04/26 06:45:29;;;;;;;28.08;14.93;;;9.70;85.60;;;;;;5022314;28;20086;-73
2022/04/26 06:47:55;;;;;;;58.75;26.92;;;9.70;86.40;;;;;;5040601;28;20060;-73
2022/04/26 06:50:21;;;;;;;29.85;15.07;;;9.70;85.70;;;;;;5024194;28;20033;-74
2022/04/26 06:52:47;;;;;;;27.75;14.85;;;9.70;85.70;;;;;;4999988;28;20048;-72
2022/04/26 06:55:12;;;;;;;23.40;13.18;;;9.70;85.70;;;;;;5006081;28;20067;-73
2022/04/26 06:57:38;;;;;;;25.95;14.70;;;9.70;85.60;;;;;;5031743;28;20335;-73
2022/04/26 07:00:05;;;;;;;24.23;14.25;;;9.70;85.70;;;;;;5004122;28;20502;-73
2022/04/26 07:02:31;;;;;;;24.92;13.68;;;9.70;85.80;;;;;;5040648;28;20032;-72
2022/04/26 07:04:56;;;;;;;21.77;13.07;;;9.70;85.80;;;;;;5040465;28;20753;-74
2022/04/26 07:07:23;;;;;;;19.40;12.45;;;9.70;85.70;;;;;;5027824;28;20036;-74
2022/04/26 07:09:48;;;;;;;20.63;12.57;;;9.70;85.70;;;;;;5059327;28;20052;-73
2022/04/26 07:12:14;;;;;;;20.15;11.63;;;9.70;85.80;;;;;;5026844;28;20080;-74
2022/04/26 07:14:40;;;;;;;18.67;12.00;;;9.70;85.70;;;;;;5039179;28;20511;-73
2022/04/26 07:17:05;;;;;;;18.17;11.30;;;9.70;85.80;;;;;;5001041;28;20068;-74
2022/04/26 07:19:35;;;;;;;18.40;10.75;;;9.70;85.70;;;;;;5015457;28;20122;-73
2022/04/26 07:22:04;;;;;;;23.55;11.55;;;9.70;85.70;;;;;;5005431;28;20032;-73
2022/04/26 07:24:31;;;;;;;19.15;10.80;;;9.70;85.60;;;;;;5040905;28;20032;-72
2022/04/26 07:26:56;;;;;;;21.23;12.10;;;9.70;85.60;;;;;;5025717;28;20824;-74
2022/04/26 07:29:22;;;;;;;18.98;11.95;;;9.70;85.70;;;;;;5023547;28;20049;-73
2022/04/26 07:31:47;;;;;;;20.30;12.18;;;9.70;85.70;;;;;;5031208;28;20032;-74
2022/04/26 07:34:22;;;;;;;18.77;11.50;;;9.70;85.80;;;;;;5042476;28;20044;-74
2022/04/26 07:36:48;;;;;;;21.90;11.88;;;9.70;85.80;;;;;;5024070;28;20528;-75
2022/04/26 07:39:17;;;;;;;19.08;10.90;;;9.70;85.80;;;;;;5014865;28;20128;-73
2022/04/26 07:41:43;;;;;;;22.95;11.60;;;9.70;85.80;;;;;;5051331;28;20040;-73
2022/04/26 07:44:08;;;;;;;18.65;11.57;;;9.70;86.00;;;;;;5058979;28;20416;-74
2022/04/26 07:46:34;;;;;;;19.83;10.85;;;9.70;86.00;;;;;;5024189;28;20037;-73
2022/04/26 07:48:59;;;;;;;16.17;9.98;;;9.70;86.10;;;;;;5011613;28;20029;-73
2022/04/26 07:51:25;;;;;;;15.48;10.23;;;9.80;86.10;;;;;;5043749;28;20033;-73
2022/04/26 07:53:50;;;;;;;14.13;9.55;;;9.80;86.00;;;;;;5027014;28;20028;-74
2022/04/26 07:56:16;;;;;;;14.25;9.45;;;9.80;86.00;;;;;;5013115;28;20032;-74
2022/04/26 07:58:42;;;;;;;17.15;10.68;;;9.90;86.00;;;;;;5060069;28;20112;-74
2022/04/26 08:01:07;;;;;;;17.25;10.10;;;9.90;85.90;;;;;;5032110;28;20112;-74
2022/04/26 08:03:33;;;;;;;23.55;11.43;;;9.90;85.80;;;;;;5033546;28;20032;-73
2022/04/26 08:05:59;;;;;;;15.40;9.60;;;9.90;85.80;;;;;;5020216;28;20192;-73
2022/04/26 08:08:24;;;;;;;14.13;9.60;;;10.00;85.90;;;;;;5009428;28;20443;-74
2022/04/26 08:10:50;;;;;;;15.48;9.77;;;10.00;85.80;;;;;;5023465;28;20041;-72
2022/04/26 08:13:16;;;;;;;13.40;9.45;;;10.00;85.90;;;;;;5024253;28;20032;-73
2022/04/26 08:15:41;;;;;;;15.43;10.32;;;10.00;85.70;;;;;;5003439;28;20604;-74
2022/04/26 08:18:07;;;;;;;17.02;10.40;;;10.10;85.70;;;;;;5033997;28;20033;-72
2022/04/26 08:20:33;;;;;;;22.77;10.95;;;10.10;85.80;;;;;;5058949;28;20135;-73
2022/04/26 08:22:58;;;;;;;13.38;8.95;;;10.10;85.70;;;;;;5018982;28;20038;-72
2022/04/26 08:28:08;;;;;;;11.98;8.45;;;10.20;85.60;;;;;;5036654;28;20749;-73
2022/04/26 08:30:34;;;;;;;13.95;9.38;;;10.30;85.50;;;;;;5020020;28;20036;-74
2022/04/26 08:33:00;;;;;;;13.90;9.50;;;10.30;85.40;;;;;;5035760;28;20029;-73
2022/04/26 08:35:26;;;;;;;13.98;8.38;;;10.40;85.50;;;;;;5022174;28;20412;-74
2022/04/26 08:37:53;;;;;;;16.42;10.98;;;10.40;85.40;;;;;;5035184;28;20038;-73
2022/04/26 08:40:19;;;;;;;15.60;10.63;;;10.40;85.40;;;;;;5030026;28;20033;-72
2022/04/26 08:42:46;;;;;;;12.52;8.82;;;10.50;85.40;;;;;;5023238;28;20030;-73
2022/04/26 08:45:15;;;;;;;15.88;10.02;;;10.50;85.40;;;;;;5038676;28;20041;-74
2022/04/26 08:53:10;;;;;;;21.50;11.05;;;10.60;85.40;;;;;;5049707;28;20667;-73
2022/04/26 08:55:41;;;;;;;13.88;9.85;;;10.70;85.30;;;;;;5051187;28;20032;-73
2022/04/26 08:58:08;;;;;;;;;;;10.80;85.60;;;;;;5052016;28;20116;-74
2022/04/26 09:00:34;;;;;;;11.63;8.80;;;10.80;85.20;;;;;;5043372;28;20525;-73
2022/04/26 09:03:02;;;;;;;14.13;8.68;;;10.80;84.90;;;;;;5044360;28;20041;-73
2022/04/26 09:05:27;;;;;;;13.07;8.90;;;10.80;84.90;;;;;;5029375;28;20033;-74
2022/04/26 09:07:53;;;;;;;11.82;8.57;;;10.80;84.80;;;;;;5038945;28;20636;-73
2022/04/26 09:10:19;;;;;;;8.38;6.72;;;10.80;84.80;;;;;;5024231;28;20036;-73
2022/04/26 09:13:09;;;;;;;7.80;6.05;;;10.90;84.70;;;;;;5037631;28;20483;-72
2022/04/26 09:15:44;;;;;;;7.47;5.70;;;10.90;84.70;;;;;;5036201;28;20064;-73
2022/04/26 09:18:27;;;;;;;9.55;6.30;;;10.90;84.50;;;;;;5042038;28;20544;-72
2022/04/26 09:21:18;;;;;;;9.30;6.90;;;11.00;84.60;;;;;;5027602;28;20044;-73
2022/04/26 09:23:44;;;;;;;6.93;4.82;;;11.10;84.50;;;;;;5005901;28;20579;-73
2022/04/26 09:26:11;;;;;;;6.38;4.90;;;11.20;84.20;;;;;;5014768;28;20037;-73
2022/04/26 09:28:38;;;;;;;19.52;6.10;;;11.20;84.20;;;;;;5011686;28;20142;-72
2022/04/26 09:31:23;;;;;;;18.17;5.82;;;11.30;84.10;;;;;;5051347;28;20116;-73
2022/04/26 09:33:57;;;;;;;7.70;5.13;;;11.50;84.30;;;;;;5027118;28;20170;-73
2022/04/26 09:36:24;;;;;;;8.15;5.00;;;11.60;83.90;;;;;;5022813;28;20095;-73
2022/04/26 09:38:55;;;;;;;8.15;4.90;;;11.60;83.70;;;;;;5039090;28;20127;-73
2022/04/26 09:41:20;;;;;;;8.13;4.32;;;11.70;83.60;;;;;;5057890;28;20184;-73
2022/04/26 09:44:06;;;;;;;5.15;3.95;;;11.80;83.50;;;;;;5029855;28;20524;-74
2022/04/26 09:46:55;;;;;;;3.85;3.40;;;11.80;83.20;;;;;;5006153;28;20048;-73
2022/04/26 09:49:22;;;;;;;6.07;4.00;;;11.80;83.00;;;;;;5041238;28;20036;-75
2022/04/26 09:51:54;;;;;;;6.75;4.03;;;11.90;82.90;;;;;;5043012;28;20579;-73
2022/04/26 09:54:22;;;;;;;5.25;3.80;;;11.90;82.90;;;;;;5048678;28;20035;-73
2022/04/26 09:56:48;;;;;;;6.28;4.28;;;12.00;82.70;;;;;;5027833;28;20048;-73
2022/04/26 09:59:17;;;;;;;5.47;3.95;;;12.00;82.50;;;;;;5044789;28;20045;-74
2022/04/26 10:01:45;;;;;;;5.85;4.63;;;12.00;82.40;;;;;;5004332;28;20067;-73
2022/04/26 10:04:17;;;;;;;4.90;3.55;;;12.00;82.40;;;;;;5043293;28;20065;-72
2022/04/26 10:06:43;;;;;;;5.45;4.30;;;12.00;82.20;;;;;;5013030;28;20500;-72
2022/04/26 10:09:09;;;;;;;5.25;4.05;;;12.00;82.00;;;;;;5045256;28;20437;-74
2022/04/26 10:11:35;;;;;;;4.88;3.80;;;12.00;82.00;;;;;;5025673;28;20065;-72
2022/04/26 10:14:02;;;;;;;5.63;3.97;;;12.00;81.90;;;;;;5044160;28;20069;-73
2022/04/26 10:16:28;;;;;;;3.97;3.55;;;12.00;81.70;;;;;;5032472;28;20033;-73
2022/04/26 10:19:09;;;;;;;6.10;3.83;;;12.00;81.60;;;;;;5027297;28;20109;-74
2022/04/26 10:21:40;;;;;;;5.97;3.67;;;12.00;81.50;;;;;;5009416;28;20040;-73
2022/04/26 10:24:18;;;;;;;5.30;4.05;;;12.00;81.40;;;;;;5000933;28;20024;-73
2022/04/26 10:26:44;;;;;;;8.05;4.00;;;12.00;81.30;;;;;;5034822;28;20041;-74
2022/04/26 10:29:10;;;;;;;6.15;3.67;;;12.00;81.20;;;;;;5059037;28;20743;-75
2022/04/26 10:31:42;;;;;;;6.93;5.13;;;12.00;81.20;;;;;;5043389;28;20033;-72
2022/04/26 10:34:31;;;;;;;6.18;4.55;;;12.00;81.20;;;;;;5027919;28;20039;-73
2022/04/26 10:36:57;;;;;;;6.82;4.65;;;12.00;81.30;;;;;;5042431;28;20068;-72
2022/04/26 10:39:42;;;;;;;6.60;4.53;;;12.00;81.10;;;;;;5045054;28;20048;-73
2022/04/26 10:42:19;;;;;;;4.88;4.28;;;12.00;81.10;;;;;;5023444;28;20035;-73
2022/04/26 10:44:46;;;;;;;7.80;4.90;;;12.00;81.10;;;;;;5039128;28;20032;-73
2022/04/26 10:47:18;;;;;;;7.75;5.97;;;12.00;81.00;;;;;;5016662;28;20445;-74
2022/04/26 10:49:45;;;;;;;9.75;6.25;;;12.00;81.00;;;;;;5035771;28;20504;-74
2022/04/26 10:52:10;;;;;;;7.57;4.60;;;12.00;81.10;;;;;;5034040;28;20040;-73
2022/04/26 10:55:03;;;;;;;6.85;5.28;;;12.10;81.10;;;;;;5046672;28;20036;-73
2022/04/26 10:57:33;;;;;;;8.50;5.05;;;12.20;81.30;;;;;;5015085;28;20029;-74
2022/04/26 10:59:59;;;;;;;11.40;6.95;;;12.20;81.10;;;;;;5048032;28;20036;-73
2022/04/26 11:02:29;;;;;;;6.95;5.13;;;12.20;81.10;;;;;;5041581;28;20091;-74
2022/04/26 11:05:16;;;;;;;6.70;4.60;;;12.20;80.90;;;;;;5007108;28;20037;-73
2022/04/26 11:07:42;;;;;;;5.53;4.45;;;12.30;80.90;;;;;;5042554;28;20433;-73
2022/04/26 11:10:09;;;;;;;8.23;5.32;;;12.30;80.80;;;;;;5031919;28;20044;-74
2022/04/26 11:12:36;;;;;;;8.43;5.20;;;12.30;80.60;;;;;;5031477;28;20716;-75
2022/04/26 11:15:06;;;;;;;7.20;5.40;;;12.30;80.60;;;;;;5025241;28;20189;-73
2022/04/26 11:17:31;;;;;;;5.90;4.38;;;12.30;80.50;;;;;;5058466;28;20029;-73
2022/04/26 11:19:58;;;;;;;6.22;4.40;;;12.40;80.50;;;;;;5012526;28;20489;-75
2022/04/26 11:22:24;;;;;;;6.63;5.30;;;12.40;80.50;;;;;;4996060;28;20052;-73
2022/04/26 11:30:29;;;;;;;4.75;3.90;;;12.40;80.40;;;;;;5039876;28;20094;-75
2022/04/26 11:32:58;;;;;;;5.30;4.78;;;12.40;80.40;;;;;;5039848;28;20029;-73
2022/04/26 11:35:24;;;;;;;8.07;5.00;;;12.50;80.40;;;;;;5025875;28;20063;-75
2022/04/26 11:37:53;;;;;;;5.80;4.57;;;12.50;80.40;;;;;;5025470;28;20053;-73
2022/04/26 11:40:32;;;;;;;6.03;4.75;;;12.50;80.40;;;;;;5022706;28;20044;-73
2022/04/26 11:42:58;;;;;;;5.13;4.32;;;12.60;80.60;;;;;;5023479;28;20094;-74
2022/04/26 11:45:28;;;;;;;4.72;3.97;;;12.60;80.40;;;;;;5024189;28;20112;-75
2022/04/26 11:47:54;;;;;;;6.07;3.72;;;12.70;80.20;;;;;;5022665;28;20048;-74
2022/04/26 11:50:23;;;;;;;6.22;4.13;;;12.80;80.90;;;;;;5018673;28;20033;-74
2022/04/26 11:52:49;;;;;;;5.10;4.25;;;12.80;80.00;;;;;;5023994;28;20136;-73
2022/04/26 11:55:27;;;;;;;5.18;3.58;;;12.90;79.90;;;;;;5041350;28;20468;-74
2022/04/26 11:58:04;;;;;;;4.80;3.25;;;12.90;79.50;;;;;;5032283;28;20045;-74
2022/04/26 12:00:29;;;;;;;10.27;3.90;;;12.90;79.40;;;;;;5013165;28;20041;-73
2022/04/26 12:02:55;;;;;;;11.32;4.00;;;13.00;79.40;;;;;;4992135;28;20044;-73
2022/04/26 12:05:21;;;;;;;6.90;3.47;;;13.00;79.30;;;;;;5037926;28;20065;-73
2022/04/26 12:07:47;;;;;;;5.15;3.65;;;13.10;79.20;;;;;;4990088;28;20042;-74
2022/04/26 12:10:29;;;;;;;5.80;3.88;;;13.10;79.10;;;;;;5020528;28;20052;-73
2022/04/26 12:13:02;;;;;;;5.60;3.67;;;13.10;79.20;;;;;;5029857;28;20044;-74
2022/04/26 12:15:32;;;;;;;14.55;5.55;;;13.20;79.20;;;;;;5021391;28;20447;-73
2022/04/26 12:18:22;;;;;;;5.65;3.75;;;13.10;79.10;;;;;;5008885;28;20735;-73
2022/04/26 12:21:00;;;;;;;7.25;3.45;;;13.10;79.10;;;;;;5037119;28;20468;-74
2022/04/26 12:23:26;;;;;;;6.28;3.72;;;13.10;79.10;;;;;;5037742;28;20029;-73
2022/04/26 12:25:53;;;;;;;3.75;3.35;;;13.10;78.90;;;;;;4981004;28;22421;-73
2022/04/26 12:28:19;;;;;;;3.50;3.20;;;13.10;78.70;;;;;;5019418;28;20045;-73
2022/04/26 12:30:44;;;;;;;5.53;3.38;;;13.10;78.70;;;;;;5023999;28;20548;-73
2022/04/26 12:33:10;;;;;;;4.07;3.30;;;13.10;78.70;;;;;;5005251;28;20469;-72
2022/04/26 12:35:35;;;;;;;4.75;3.00;;;13.20;78.90;;;;;;5051412;28;20041;-74
2022/04/26 12:38:08;;;;;;;3.40;2.90;;;13.20;79.00;;;;;;5025792;28;20413;-73
2022/04/26 12:40:34;;;;;;;3.75;3.10;;;13.20;78.70;;;;;;5020868;28;20036;-73
2022/04/26 12:43:00;;;;;;;3.80;2.85;;;13.20;78.70;;;;;;5024214;28;20120;-73
2022/04/26 12:45:26;;;;;;;4.20;3.25;;;13.20;78.70;;;;;;5025168;28;20151;-73
2022/04/26 12:50:52;;;;;;;4.22;3.40;;;13.30;78.50;;;;;;5015736;28;20040;-74
2022/04/26 12:53:22;;;;;;;3.85;3.17;;;13.20;78.40;;;;;;5038769;28;20037;-74
2022/04/26 12:55:48;;;;;;;4.88;3.58;;;13.20;78.40;;;;;;5023073;28;20033;-75
2022/04/26 12:58:14;;;;;;;4.22;3.38;;;13.20;78.40;;;;;;5007290;28;20096;-74
2022/04/26 13:00:42;;;;;;;3.63;3.10;;;13.20;78.40;;;;;;5008764;28;20044;-72
2022/04/26 13:03:08;;;;;;;4.07;3.17;;;13.10;78.30;;;;;;5034488;28;20036;-73
2022/04/26 13:05:39;;;;;;;5.00;3.45;;;13.20;78.50;;;;;;5033411;28;20040;-73
2022/04/26 13:08:04;;;;;;;5.22;3.85;;;13.20;78.70;;;;;;5042656;28;20099;-72
2022/04/26 13:10:30;;;;;;;4.68;3.50;;;13.20;78.70;;;;;;5045585;28;20489;-73
2022/04/26 13:12:56;;;;;;;4.78;3.83;;;13.20;78.70;;;;;;5032222;28;20688;-72
2022/04/26 13:15:23;;;;;;;4.20;3.65;;;13.30;78.50;;;;;;5042918;28;20590;-73
2022/04/26 13:17:49;;;;;;;4.07;3.65;;;13.20;78.50;;;;;;5042332;28;20876;-73
2022/04/26 13:20:14;;;;;;;5.10;4.13;;;13.30;78.50;;;;;;5006625;28;20041;-73
2022/04/26 13:22:40;;;;;;;3.95;3.53;;;13.30;78.50;;;;;;5028633;28;20033;-74
2022/04/26 13:25:06;;;;;;;4.95;3.80;;;13.30;78.50;;;;;;5005525;28;20124;-73
2022/04/26 13:27:32;;;;;;;6.90;4.45;;;13.30;78.40;;;;;;5025136;28;20468;-74
2022/04/26 13:29:58;;;;;;;4.88;4.38;;;13.40;78.30;;;;;;5045449;28;20086;-73
2022/04/26 13:32:24;;;;;;;4.30;3.63;;;13.40;78.40;;;;;;5025474;28;20322;-75
2022/04/26 13:34:51;;;;;;;4.82;3.95;;;13.40;78.40;;;;;;5029816;28;20536;-74
2022/04/26 13:37:18;;;;;;;4.30;3.90;;;13.40;78.40;;;;;;4991207;28;20088;-73
2022/04/26 13:39:45;;;;;;;5.40;4.20;;;13.40;78.30;;;;;;5021554;28;20045;-73
2022/04/26 13:42:11;;;;;;;7.68;5.13;;;13.40;78.30;;;;;;4995534;28;20124;-73
2022/04/26 13:44:36;;;;;;;7.15;5.45;;;13.40;78.30;;;;;;4996141;28;20133;-73
2022/04/26 13:47:04;;;;;;;9.05;6.50;;;13.40;78.40;;;;;;5006673;28;20121;-74
2022/04/26 13:49:31;;;;;;;9.60;5.97;;;13.30;78.30;;;;;;5030914;28;20029;-73
2022/04/26 13:51:57;;;;;;;7.28;4.97;;;13.30;78.40;;;;;;5022323;28;20731;-73
2022/04/26 13:54:23;;;;;;;6.18;4.63;;;13.30;78.40;;;;;;5018199;28;20034;-73
2022/04/26 13:56:49;;;;;;;9.32;6.40;;;13.30;78.30;;;;;;5020425;28;20033;-73
2022/04/26 13:59:15;;;;;;;8.70;6.35;;;13.30;78.20;;;;;;5027409;28;20052;-73
2022/04/26 14:01:41;;;;;;;7.78;5.03;;;13.30;78.30;;;;;;5008132;28;20045;-73
2022/04/26 14:04:06;;;;;;;8.45;4.55;;;13.20;78.30;;;;;;5002416;28;20781;-74
2022/04/26 14:06:32;;;;;;;5.90;5.22;;;13.20;78.40;;;;;;5008432;28;20525;-73
2022/04/26 14:08:57;;;;;;;4.32;3.92;;;13.20;78.40;;;;;;5038564;28;20034;-73
2022/04/26 14:11:24;;;;;;;5.20;4.38;;;13.20;78.40;;;;;;5006289;28;20064;-73
2022/04/26 14:22:02;;;;;;;4.72;3.90;;;13.50;78.50;;;;;;5035787;28;20045;-73
2022/04/26 14:24:28;;;;;;;6.68;4.45;;;13.50;78.30;;;;;;5023647;28;20037;-74
2022/04/26 14:26:53;;;;;;;9.68;6.97;;;13.60;78.10;;;;;;5013513;28;20118;-73
2022/04/26 14:29:19;;;;;;;5.13;4.35;;;13.60;78.10;;;;;;5010337;28;20469;-74
2022/04/26 14:31:44;;;;;;;6.82;5.18;;;13.50;78.00;;;;;;5010508;28;20029;-75
2022/04/26 14:34:11;;;;;;;6.65;4.47;;;13.50;78.00;;;;;;5017695;28;20113;-74
2022/04/26 14:36:37;;;;;;;6.60;4.15;;;13.50;78.10;;;;;;5053784;28;20044;-73
2022/04/26 14:39:03;;;;;;;5.18;4.50;;;13.50;78.10;;;;;;5021590;28;20026;-73
2022/04/26 14:41:28;;;;;;;6.05;5.07;;;13.50;78.00;;;;;;5034563;28;20025;-75
2022/04/26 14:43:54;;;;;;;6.00;4.22;;;13.50;77.90;;;;;;5049446;28;20532;-75
2022/04/26 14:46:20;;;;;;;5.95;3.85;;;13.50;77.90;;;;;;5031112;28;20029;-74
2022/04/26 14:48:45;;;;;;;6.43;4.20;;;13.50;77.80;;;;;;5041931;28;20044;-73
2022/04/26 14:51:11;;;;;;;6.15;4.68;;;13.50;77.70;;;;;;5055899;28;20430;-73
2022/04/26 14:53:38;;;;;;;5.30;4.55;;;13.50;77.70;;;;;;5042140;28;22720;-75
2022/04/26 14:56:04;;;;;;;6.60;4.38;;;13.40;77.70;;;;;;5030820;28;20068;-75
2022/04/26 14:58:30;;;;;;;8.23;4.20;;;13.40;77.70;;;;;;5040616;28;20037;-72
2022/04/26 15:00:55;;;;;;;5.57;4.35;;;13.30;77.70;;;;;;5021893;28;20377;-74
2022/04/26 15:03:21;;;;;;;5.30;4.32;;;13.20;77.60;;;;;;5016723;28;20161;-74
2022/04/26 15:05:46;;;;;;;6.95;5.32;;;13.20;77.70;;;;;;5041148;28;20176;-74
2022/04/26 15:10:56;;;;;;;11.68;8.25;;;13.10;78.00;;;;;;5056720;28;20480;-75
2022/04/26 15:18:50;;;;;;;13.68;9.32;;;12.90;78.10;;;;;;5045546;28;20035;-74
2022/04/26 15:21:18;;;;;;;9.98;7.50;;;12.80;78.20;;;;;;5057066;28;20483;-74
2022/04/26 15:23:44;;;;;;;12.95;9.77;;;12.80;78.30;;;;;;5009429;28;20128;-73
2022/04/26 15:26:11;;;;;;;8.55;5.30;;;12.70;78.40;;;;;;5017401;28;20132;-73
2022/04/26 15:28:37;;;;;;;5.97;5.15;;;12.60;78.40;;;;;;5065728;28;20543;-74
2022/04/26 15:31:03;;;;;;;6.15;4.90;;;12.60;78.60;;;;;;5023198;28;20116;-74
2022/04/26 15:33:28;;;;;;;5.18;4.05;;;12.60;78.70;;;;;;5011650;28;20119;-72
2022/04/26 15:35:56;;;;;;;3.80;3.30;;;12.50;78.60;;;;;;5030049;28;20037;-73
2022/04/26 15:38:21;;;;;;;5.55;3.50;;;12.50;78.70;;;;;;5022582;28;20792;-73
2022/04/26 15:40:47;;;;;;;4.63;3.35;;;12.40;78.70;;;;;;5000455;28;20040;-75
2022/04/26 15:43:13;;;;;;;6.72;4.05;;;12.40;78.70;;;;;;5039364;28;20036;-73
2022/04/26 15:45:39;;;;;;;6.85;4.15;;;12.30;78.70;;;;;;5009291;28;20740;-75
2022/04/26 15:48:05;;;;;;;5.35;4.32;;;12.30;78.80;;;;;;5017489;28;20037;-74
2022/04/26 15:50:30;;;;;;;10.23;5.25;;;12.20;78.80;;;;;;5023466;28;20037;-72
2022/04/26 15:52:56;;;;;;;8.80;5.38;;;12.20;79.00;;;;;;5026483;28;20040;-74
2022/04/26 15:55:22;;;;;;;7.60;3.70;;;12.10;79.00;;;;;;5020353;28;20033;-74
2022/04/26 15:57:49;;;;;;;8.27;4.93;;;12.10;79.10;;;;;;5028999;28;20033;-73
2022/04/26 16:00:16;;;;;;;5.78;4.80;;;12.10;79.20;;;;;;5022653;28;20580;-74
2022/04/26 16:02:43;;;;;;;8.43;5.55;;;12.10;79.30;;;;;;5051856;28;20040;-73
2022/04/26 16:05:09;;;;;;;4.05;3.47;;;12.00;79.30;;;;;;5040880;28;20072;-74
2022/04/26 16:07:34;;;;;;;5.65;4.22;;;12.00;79.40;;;;;;5015025;28;20049;-73
2022/04/26 16:20:56;;;;;;;5.55;3.90;;;12.00;79.50;;;;;;5038390;28;20086;-72
2022/04/26 16:23:22;;;;;;;5.05;3.53;;;12.00;79.50;;;;;;5010689;28;20033;-72
2022/04/26 16:25:47;;;;;;;5.93;4.13;;;11.90;79.50;;;;;;5034262;28;20064;-72
2022/04/26 16:28:13;;;;;;;4.60;4.00;;;12.00;79.70;;;;;;5026143;28;20116;-73
2022/04/26 16:30:41;;;;;;;6.95;5.72;;;12.00;79.70;;;;;;5028102;28;20033;-72
2022/04/26 16:33:07;;;;;;;14.57;10.25;;;12.00;79.80;;;;;;5030961;28;20853;-73
2022/04/26 16:35:33;;;;;;;4.88;4.30;;;12.10;79.80;;;;;;5009132;28;20132;-72
2022/04/26 16:37:58;;;;;;;10.55;8.02;;;12.10;79.70;;;;;;4983729;28;20033;-72
2022/04/26 16:40:24;;;;;;;5.15;3.95;;;12.20;79.70;;;;;;4990566;28;20060;-72
2022/04/26 16:42:50;;;;;;;4.32;3.60;;;12.20;79.60;;;;;;5026112;28;20520;-73
2022/04/26 16:45:22;;;;;;;6.90;4.55;;;12.20;79.40;;;;;;5023327;28;20474;-74
2022/04/26 16:47:51;;;;;;;6.75;4.97;;;12.20;79.30;;;;;;4988340;28;21081;-73
2022/04/26 16:50:17;;;;;;;6.28;4.20;;;12.20;79.40;;;;;;5010602;28;20555;-73
2022/04/26 16:52:46;;;;;;;6.75;4.68;;;12.10;79.40;;;;;;5025162;28;20045;-73
2022/04/26 16:55:11;;;;;;;6.22;3.88;;;12.10;79.60;;;;;;5004649;28;20629;-73
2022/04/26 16:57:37;;;;;;;7.03;4.82;;;12.10;79.60;;;;;;5015865;28;20105;-73
2022/04/26 17:00:03;;;;;;;6.60;5.00;;;12.10;79.60;;;;;;5020028;28;20033;-73
2022/04/26 17:02:30;;;;;;;8.20;4.50;;;12.10;79.60;;;;;;4989215;28;20055;-73
2022/04/26 17:04:56;;;;;;;5.78;4.20;;;12.10;79.70;;;;;;5011479;28;20557;-72